Time;durP1;ratioP1;P1;durP2;ratioP2;P2;SDS_P1;SDS_P2;PMS_P1;PMS_P2;Temp;Humidity;BMP_temperature;BMP_pressure;BME280_temperature;BME280_humidity;BME280_pressure;Samples;Min_cycle;Max_cycle;Signal;HPM_P1;HPM_P2
2021/04/21 00:00:23;;;;;;;11.60;8.07;;;8.60;79.80;;;;;;5113610;28;20488;-70
2021/04/21 00:02:51;;;;;;;13.75;8.07;;;8.50;79.70;;;;;;5113727;28;20049;-70
2021/04/21 00:05:19;;;;;;;12.35;7.25;;;8.50;80.20;;;;;;5113269;28;20032;-70
2021/04/21 00:07:47;;;;;;;15.48;8.35;;;8.50;80.40;;;;;;5113603;28;20447;-70
2021/04/21 00:10:13;;;;;;;11.75;7.65;;;8.50;80.50;;;;;;5114080;28;20510;-70
2021/04/21 00:12:40;;;;;;;11.93;7.78;;;8.40;80.40;;;;;;5113436;28;20086;-70
2021/04/21 00:15:09;;;;;;;10.90;8.07;;;8.40;80.90;;;;;;5113293;28;20031;-70
2021/04/21 00:17:38;;;;;;;12.82;7.75;;;8.40;80.30;;;;;;5114441;28;20075;-70
2021/04/21 00:20:07;;;;;;;11.55;8.68;;;8.30;80.40;;;;;;5117800;28;20032;-70
2021/04/21 00:22:34;;;;;;;12.73;7.43;;;8.30;80.50;;;;;;5116718;28;20039;-70
2021/04/21 00:25:00;;;;;;;13.48;8.15;;;8.20;80.90;;;;;;5117604;28;20042;-70
2021/04/21 00:27:29;;;;;;;12.27;8.77;;;8.20;80.90;;;;;;5117206;28;20046;-70
2021/04/21 00:30:00;;;;;;;14.70;9.05;;;8.10;81.00;;;;;;5117098;28;20039;-70
2021/04/21 00:32:27;;;;;;;12.05;8.30;;;8.10;81.30;;;;;;5117570;28;20042;-70
2021/04/21 00:34:56;;;;;;;11.25;8.05;;;8.10;81.70;;;;;;5117297;28;20108;-70
2021/04/21 00:37:27;;;;;;;11.60;8.65;;;8.00;81.90;;;;;;5117661;28;20386;-70
2021/04/21 00:39:55;;;;;;;13.48;9.35;;;8.00;82.40;;;;;;5117151;28;20035;-70
2021/04/21 00:42:49;;;;;;;14.10;9.25;;;8.00;82.10;;;;;;5117110;28;20118;-70
2021/04/21 00:45:17;;;;;;;12.15;8.68;;;8.00;81.90;;;;;;5116909;28;20066;-70
2021/04/21 00:48:30;;;;;;;14.32;9.40;;;8.00;81.80;;;;;;5117011;28;20036;-70
2021/04/21 00:51:00;;;;;;;11.70;9.05;;;8.00;82.50;;;;;;5115875;28;20075;-70
2021/04/21 00:53:49;;;;;;;13.98;9.05;;;7.90;82.00;;;;;;5117437;28;20044;-70
2021/04/21 00:56:43;;;;;;;12.95;9.38;;;7.90;82.10;;;;;;5116527;28;20047;-70
2021/04/21 00:59:37;;;;;;;11.82;9.27;;;7.90;82.10;;;;;;5116684;28;20032;-70
2021/04/21 01:02:08;;;;;;;13.23;9.20;;;7.80;83.00;;;;;;5116516;28;20088;-70
2021/04/21 01:04:36;;;;;;;12.20;9.15;;;7.80;83.10;;;;;;5116702;28;20039;-70
2021/04/21 01:07:03;;;;;;;16.13;10.25;;;7.80;83.30;;;;;;5116663;28;20126;-70
2021/04/21 01:09:31;;;;;;;14.20;10.13;;;7.70;83.20;;;;;;5116723;28;20047;-70
2021/04/21 01:12:07;;;;;;;13.85;9.50;;;7.80;83.50;;;;;;5116349;28;20039;-70
2021/04/21 01:14:39;;;;;;;14.50;11.10;;;7.70;83.90;;;;;;5116152;28;20040;-70
2021/04/21 01:17:12;;;;;;;14.73;10.35;;;7.70;84.40;;;;;;5116513;28;20399;-70
2021/04/21 01:19:43;;;;;;;13.55;9.82;;;7.70;85.10;;;;;;5116712;28;20163;-70
2021/04/21 01:22:17;;;;;;;15.63;10.88;;;7.60;84.50;;;;;;5116577;28;20092;-70
2021/04/21 01:25:06;;;;;;;13.80;10.02;;;7.70;84.70;;;;;;5116080;28;20047;-70
2021/04/21 01:27:50;;;;;;;14.27;10.15;;;7.70;85.40;;;;;;5116775;28;20031;-70
2021/04/21 01:30:20;;;;;;;13.57;10.65;;;7.60;85.10;;;;;;5114837;28;20035;-70
2021/04/21 01:32:49;;;;;;;13.30;10.00;;;7.60;85.20;;;;;;5116574;28;20044;-70
2021/04/21 01:35:20;;;;;;;14.60;11.40;;;7.60;85.30;;;;;;5116024;28;20151;-70
2021/04/21 01:37:47;;;;;;;14.02;11.15;;;7.60;85.00;;;;;;5115468;28;20146;-70
2021/04/21 01:40:20;;;;;;;13.35;11.07;;;7.50;85.30;;;;;;5115856;28;20032;-70
2021/04/21 01:42:51;;;;;;;16.73;10.93;;;7.50;85.40;;;;;;5115796;28;20043;-70
2021/04/21 01:45:24;;;;;;;18.30;12.52;;;7.50;85.60;;;;;;5115612;28;20451;-70
2021/04/21 01:47:51;;;;;;;15.40;10.52;;;7.50;85.40;;;;;;5115339;28;20138;-70
2021/04/21 01:50:18;;;;;;;12.38;10.10;;;7.50;85.30;;;;;;5116276;28;20042;-70
2021/04/21 01:53:21;;;;;;;15.90;11.05;;;7.50;85.60;;;;;;5116145;28;20044;-70
2021/04/21 01:55:55;;;;;;;13.30;10.85;;;7.50;86.30;;;;;;5115657;28;20040;-70
2021/04/21 01:58:32;;;;;;;17.23;11.10;;;7.50;85.80;;;;;;5115628;27;20054;-70
2021/04/21 02:01:05;;;;;;;15.85;11.23;;;7.40;85.60;;;;;;5116102;28;20116;-70
2021/04/21 02:03:46;;;;;;;14.50;11.83;;;7.40;85.70;;;;;;5115409;28;20047;-70
2021/04/21 02:06:54;;;;;;;14.38;11.82;;;7.40;86.30;;;;;;5115514;28;20047;-70
2021/04/21 02:09:52;;;;;;;17.95;11.90;;;7.30;86.50;;;;;;5113331;28;20047;-70
2021/04/21 02:12:38;;;;;;;15.57;11.13;;;7.30;86.70;;;;;;5113626;28;20178;-70
2021/04/21 02:15:17;;;;;;;14.38;11.48;;;7.30;86.20;;;;;;5114870;28;20554;-70
2021/04/21 02:18:13;;;;;;;14.95;11.63;;;7.20;86.00;;;;;;5115389;28;20040;-70
2021/04/21 02:21:07;;;;;;;16.63;12.13;;;7.20;87.30;;;;;;5115486;28;20035;-70
2021/04/21 02:23:47;;;;;;;15.95;11.77;;;7.20;87.30;;;;;;5103197;28;20056;-70
2021/04/21 02:26:31;;;;;;;15.60;11.15;;;7.20;87.30;;;;;;5114673;28;20457;-70
2021/04/21 02:29:09;;;;;;;17.58;12.32;;;7.20;86.90;;;;;;5115120;28;20497;-70
2021/04/21 02:31:55;;;;;;;15.43;12.40;;;7.20;87.00;;;;;;5115304;28;20051;-70
2021/04/21 02:34:37;;;;;;;15.60;12.85;;;7.20;87.20;;;;;;5114769;28;20043;-70
2021/04/21 02:37:09;;;;;;;17.52;12.68;;;7.20;87.00;;;;;;5115123;28;20114;-70
2021/04/21 02:39:35;;;;;;;20.05;13.95;;;7.20;87.00;;;;;;5114881;28;20123;-70
2021/04/21 02:42:14;;;;;;;18.48;14.40;;;7.20;86.90;;;;;;5114540;28;20059;-70
2021/04/21 02:44:56;;;;;;;18.65;13.48;;;7.20;87.00;;;;;;5115056;28;20479;-70
2021/04/21 02:47:37;;;;;;;17.00;14.63;;;7.20;87.10;;;;;;5115022;28;20043;-70
2021/04/21 02:50:26;;;;;;;21.92;15.32;;;7.10;87.20;;;;;;5114635;28;20035;-70
2021/04/21 02:53:13;;;;;;;23.85;16.45;;;7.00;88.00;;;;;;5114428;28;20479;-70
2021/04/21 02:55:58;;;;;;;20.98;17.08;;;6.90;88.20;;;;;;5114739;28;20043;-69
2021/04/21 02:58:49;;;;;;;19.25;16.70;;;6.90;87.90;;;;;;5114884;28;20063;-70
2021/04/21 03:01:53;;;;;;;24.85;16.85;;;6.90;87.80;;;;;;5114561;28;20491;-70
2021/04/21 03:04:26;;;;;;;23.67;18.30;;;6.90;87.70;;;;;;5114522;27;20067;-69
2021/04/21 03:06:54;;;;;;;19.60;17.02;;;7.00;87.60;;;;;;5114325;28;20043;-70
2021/04/21 03:09:44;;;;;;;20.08;16.60;;;7.00;87.30;;;;;;5114128;28;20482;-70
2021/04/21 03:12:11;;;;;;;23.67;17.35;;;7.10;87.30;;;;;;5114539;28;20077;-70
2021/04/21 03:14:43;;;;;;;23.00;17.10;;;7.00;87.20;;;;;;5114028;28;20031;-69
2021/04/21 03:17:12;;;;;;;20.10;16.13;;;7.10;87.00;;;;;;5114076;28;20395;-70
2021/04/21 03:19:45;;;;;;;20.58;15.90;;;7.10;86.90;;;;;;5114708;28;20040;-70
2021/04/21 03:22:14;;;;;;;19.90;16.55;;;7.10;86.80;;;;;;5114159;28;20043;-70
2021/04/21 03:25:03;;;;;;;21.63;16.15;;;7.10;86.90;;;;;;5113917;28;20046;-69
2021/04/21 03:27:32;;;;;;;21.42;16.85;;;7.10;87.50;;;;;;5114198;28;20355;-70
2021/04/21 03:30:04;;;;;;;20.75;16.52;;;7.00;87.40;;;;;;5114422;28;20459;-70
2021/04/21 03:32:35;;;;;;;20.00;16.75;;;7.00;87.60;;;;;;5114523;28;20097;-70
2021/04/21 03:35:02;;;;;;;21.17;17.65;;;7.00;87.90;;;;;;5113606;28;20398;-70
2021/04/21 03:37:51;;;;;;;24.92;16.65;;;6.90;88.10;;;;;;5113980;28;20080;-70
2021/04/21 03:40:17;;;;;;;23.05;17.77;;;7.00;88.20;;;;;;5114625;28;20061;-70
2021/04/21 03:42:45;;;;;;;20.23;17.23;;;7.00;88.60;;;;;;5114202;28;20036;-69
2021/04/21 03:45:13;;;;;;;23.30;16.05;;;6.90;88.60;;;;;;5113895;28;20104;-70
2021/04/21 03:47:41;;;;;;;21.88;17.00;;;6.90;88.80;;;;;;5113705;28;20032;-70
2021/04/21 03:50:09;;;;;;;23.67;17.02;;;6.90;89.10;;;;;;5114253;28;20036;-70
2021/04/21 03:52:39;;;;;;;22.17;17.88;;;6.90;89.30;;;;;;5115140;28;20043;-70
2021/04/21 03:55:06;;;;;;;23.70;17.33;;;6.90;89.30;;;;;;5118134;28;20050;-70
2021/04/21 03:57:33;;;;;;;21.27;16.88;;;7.00;89.60;;;;;;5118181;28;20043;-70
2021/04/21 04:00:03;;;;;;;20.35;16.67;;;7.00;89.90;;;;;;5117911;28;20059;-70
2021/04/21 04:02:31;;;;;;;27.15;17.25;;;7.00;89.90;;;;;;5118091;28;20036;-70
2021/04/21 04:05:02;;;;;;;23.35;17.27;;;7.00;90.00;;;;;;5117434;28;20048;-70
2021/04/21 04:07:37;;;;;;;24.55;16.55;;;7.00;90.20;;;;;;5116189;28;20035;-70
2021/04/21 04:10:04;;;;;;;21.02;16.27;;;7.00;90.30;;;;;;5118449;28;20126;-70
2021/04/21 04:12:35;;;;;;;21.67;15.98;;;7.00;90.40;;;;;;5117585;28;20073;-70
2021/04/21 04:15:01;;;;;;;21.33;16.77;;;7.00;90.40;;;;;;5117251;28;20040;-70
2021/04/21 04:17:29;;;;;;;26.27;18.13;;;7.00;90.60;;;;;;5117578;28;20063;-70
2021/04/21 04:19:57;;;;;;;21.25;16.52;;;7.00;90.60;;;;;;5117524;28;20039;-70
2021/04/21 04:22:23;;;;;;;21.40;16.45;;;7.00;90.60;;;;;;5117383;27;20458;-70
2021/04/21 04:24:57;;;;;;;22.48;16.27;;;7.00;90.80;;;;;;5117091;28;20032;-70
2021/04/21 04:27:24;;;;;;;23.63;17.75;;;7.00;91.00;;;;;;5117780;28;20084;-69
2021/04/21 04:29:53;;;;;;;21.52;17.80;;;7.00;91.30;;;;;;5117670;28;20039;-70
2021/04/21 04:32:21;;;;;;;24.10;18.20;;;7.00;91.20;;;;;;5117703;28;20036;-70
2021/04/21 04:34:49;;;;;;;22.10;16.52;;;7.00;91.30;;;;;;5116791;28;20035;-70
2021/04/21 04:37:17;;;;;;;24.55;16.92;;;7.00;91.20;;;;;;5117199;28;20055;-69
2021/04/21 04:39:43;;;;;;;24.55;18.75;;;7.10;91.20;;;;;;5117330;28;20039;-70
2021/04/21 04:42:11;;;;;;;22.80;18.88;;;7.10;91.40;;;;;;5117236;28;20109;-70
2021/04/21 04:44:41;;;;;;;26.50;20.23;;;7.10;91.30;;;;;;5116705;28;20065;-70
2021/04/21 04:47:12;;;;;;;24.27;19.23;;;7.20;91.50;;;;;;5117130;28;20485;-69
2021/04/21 04:50:03;;;;;;;19.80;17.65;;;7.20;91.50;;;;;;5117406;28;20051;-69
2021/04/21 04:52:37;;;;;;;21.77;18.98;;;7.30;91.80;;;;;;5117056;28;20051;-70
2021/04/21 04:55:03;;;;;;;;;;;7.30;91.50;;;;;;5117129;28;20110;-70
2021/04/21 04:57:31;;;;;;;22.27;17.70;;;7.30;91.90;;;;;;5117536;28;19916;-70
2021/04/21 05:00:04;;;;;;;24.92;18.35;;;7.40;91.20;;;;;;5116639;28;20036;-69
2021/04/21 05:02:34;;;;;;;24.48;19.02;;;7.50;91.20;;;;;;5116634;28;20046;-69
2021/04/21 05:05:04;;;;;;;23.58;17.48;;;7.60;91.20;;;;;;5116183;28;20375;-70
2021/04/21 05:08:06;;;;;;;25.65;19.08;;;7.70;91.10;;;;;;5116490;28;20054;-69
2021/04/21 05:10:36;;;;;;;25.60;19.55;;;7.70;91.20;;;;;;5115856;28;20044;-69
2021/04/21 05:13:06;;;;;;;25.52;18.88;;;7.70;91.00;;;;;;5116532;27;20039;-70
2021/04/21 05:15:32;;;;;;;23.48;20.20;;;7.80;91.20;;;;;;5116011;28;20047;-70
2021/04/21 05:18:03;;;;;;;23.52;18.10;;;7.90;91.00;;;;;;5115437;28;20114;-70
2021/04/21 05:20:53;;;;;;;25.08;19.60;;;8.00;90.90;;;;;;5116439;28;20097;-70
2021/04/21 05:23:52;;;;;;;23.90;19.85;;;8.20;91.00;;;;;;5116346;28;20094;-70
2021/04/21 05:26:54;;;;;;;24.65;20.38;;;8.20;90.90;;;;;;5116337;28;20044;-70
2021/04/21 05:30:00;;;;;;;23.42;18.85;;;8.30;91.00;;;;;;5116212;28;20054;-70
2021/04/21 05:33:04;;;;;;;25.67;18.58;;;8.60;90.70;;;;;;5116327;28;20491;-69
2021/04/21 05:35:30;;;;;;;;;;;8.70;90.30;;;;;;5116652;28;20462;-69
2021/04/21 05:38:08;;;;;;;23.90;18.23;;;8.80;90.60;;;;;;5116365;27;19915;-70
2021/04/21 05:41:11;;;;;;;27.25;19.90;;;8.90;90.00;;;;;;5116254;28;20122;-71
2021/04/21 05:44:03;;;;;;;25.95;19.13;;;9.10;89.80;;;;;;5116278;28;20382;-71
2021/04/21 05:46:59;;;;;;;24.98;19.77;;;9.20;89.70;;;;;;5115360;27;20474;-71
2021/04/21 05:49:59;;;;;;;23.63;18.67;;;9.30;88.90;;;;;;5116351;28;20071;-71
2021/04/21 05:52:59;;;;;;;21.73;17.38;;;9.60;88.40;;;;;;5115621;28;20117;-71
2021/04/21 05:56:02;;;;;;;23.60;17.88;;;9.80;87.80;;;;;;5115313;28;20043;-71
2021/04/21 05:58:37;;;;;;;22.33;17.13;;;10.30;86.50;;;;;;5115783;28;20061;-71
2021/04/21 06:01:13;;;;;;;19.23;15.85;;;10.30;85.80;;;;;;5115721;28;20110;-71
2021/04/21 06:03:41;;;;;;;20.25;16.85;;;10.70;85.10;;;;;;5115291;28;20039;-71
2021/04/21 06:06:07;;;;;;;20.05;15.43;;;10.70;84.60;;;;;;5115079;28;20532;-71
2021/04/21 06:08:33;;;;;;;20.73;16.52;;;10.50;85.10;;;;;;5115699;28;20122;-71
2021/04/21 06:10:59;;;;;;;23.35;18.48;;;10.60;84.70;;;;;;5115599;27;20135;-71
2021/04/21 06:13:27;;;;;;;26.23;18.88;;;10.80;84.60;;;;;;5115632;28;20558;-71
2021/04/21 06:15:54;;;;;;;28.45;19.92;;;10.80;84.70;;;;;;5114213;28;20035;-71
2021/04/21 06:18:20;;;;;;;27.15;21.02;;;11.00;85.00;;;;;;5115589;28;20032;-71
2021/04/21 06:20:46;;;;;;;29.63;19.67;;;11.10;84.80;;;;;;5114968;28;20032;-71
2021/04/21 06:23:20;;;;;;;28.42;21.85;;;11.00;85.20;;;;;;5115466;28;20044;-70
2021/04/21 06:25:47;;;;;;;27.00;20.85;;;11.00;85.10;;;;;;5114748;28;20122;-70
2021/04/21 06:28:23;;;;;;;33.47;24.92;;;10.80;86.50;;;;;;5113595;28;20088;-70
2021/04/21 06:31:12;;;;;;;32.22;23.30;;;10.50;87.00;;;;;;5114607;28;20065;-70
2021/04/21 06:33:40;;;;;;;36.40;26.08;;;10.50;88.20;;;;;;5115134;28;20421;-70
2021/04/21 06:36:07;;;;;;;34.78;24.77;;;10.20;89.20;;;;;;5114240;28;20047;-71
2021/04/21 06:38:38;;;;;;;37.03;24.45;;;10.10;90.00;;;;;;5114841;28;20085;-70
2021/04/21 06:41:04;;;;;;;39.28;25.63;;;10.10;90.20;;;;;;5114505;28;20084;-70
2021/04/21 06:43:36;;;;;;;41.40;27.95;;;10.10;90.40;;;;;;5114518;28;20035;-70
2021/04/21 06:46:10;;;;;;;42.63;26.20;;;10.10;90.60;;;;;;5113802;28;20130;-71
2021/04/21 06:48:37;;;;;;;40.40;26.20;;;10.00;90.70;;;;;;5114544;28;20505;-71
2021/04/21 06:51:12;;;;;;;37.17;25.33;;;9.90;91.00;;;;;;5114510;28;20036;-69
2021/04/21 06:53:43;;;;;;;44.13;27.20;;;9.90;91.60;;;;;;5114269;28;20058;-70
2021/04/21 06:56:08;;;;;;;47.70;28.85;;;9.80;91.50;;;;;;5114202;28;20035;-70
2021/04/21 06:58:36;;;;;;;51.88;29.55;;;9.90;91.60;;;;;;5115038;28;20111;-70
2021/04/21 07:01:13;;;;;;;51.00;29.42;;;10.00;91.60;;;;;;5114105;28;20165;-71
2021/04/21 07:03:40;;;;;;;50.83;31.33;;;9.90;92.10;;;;;;5114468;28;20038;-70
2021/04/21 07:06:07;;;;;;;64.97;31.52;;;9.90;92.20;;;;;;5114105;28;20084;-70
2021/04/21 07:08:38;;;;;;;45.00;29.63;;;10.00;92.50;;;;;;5114208;28;20092;-70
2021/04/21 07:11:05;;;;;;;51.28;32.05;;;10.10;92.30;;;;;;5114005;28;20066;-70
2021/04/21 07:13:35;;;;;;;60.80;34.50;;;10.10;92.00;;;;;;5114612;28;20070;-70
2021/04/21 07:16:08;;;;;;;56.50;32.45;;;10.00;91.90;;;;;;5112474;28;20044;-70
2021/04/21 07:18:37;;;;;;;54.28;31.38;;;10.00;91.90;;;;;;5114124;27;20059;-70
2021/04/21 07:21:05;;;;;;;58.05;30.35;;;9.80;91.80;;;;;;5113949;28;20031;-70
2021/04/21 07:23:38;;;;;;;58.40;32.45;;;9.70;92.10;;;;;;5113786;28;20544;-70
2021/04/21 07:26:05;;;;;;;53.37;29.57;;;9.60;92.30;;;;;;5113601;28;20360;-70
2021/04/21 07:28:35;;;;;;;56.83;30.05;;;9.40;92.70;;;;;;5113509;28;20039;-70
2021/04/21 07:31:11;;;;;;;58.28;28.75;;;9.50;92.70;;;;;;5114473;28;20035;-70
2021/04/21 07:33:45;;;;;;;50.00;27.17;;;9.30;92.80;;;;;;5114002;28;20431;-70
2021/04/21 07:36:17;;;;;;;48.10;27.75;;;9.20;92.90;;;;;;5113552;28;20035;-70
2021/04/21 07:39:06;;;;;;;52.95;27.63;;;9.10;92.90;;;;;;5113940;28;20032;-70
2021/04/21 07:41:39;;;;;;;43.55;26.35;;;9.10;92.90;;;;;;5113385;28;20048;-70
2021/04/21 07:44:07;;;;;;;46.58;26.42;;;9.10;92.70;;;;;;5113610;28;20070;-70
2021/04/21 07:46:34;;;;;;;42.97;23.83;;;9.20;92.50;;;;;;5113783;28;20031;-70
2021/04/21 07:49:07;;;;;;;30.67;19.85;;;9.40;92.10;;;;;;5113556;28;20042;-70
2021/04/21 07:51:35;;;;;;;31.33;21.50;;;9.60;91.30;;;;;;5113984;28;20039;-70
2021/04/21 07:54:17;;;;;;;32.65;19.77;;;9.60;91.10;;;;;;5113604;28;20036;-70
2021/04/21 07:56:53;;;;;;;29.45;18.95;;;9.50;90.70;;;;;;5113355;28;20463;-70
2021/04/21 07:59:22;;;;;;;25.08;16.55;;;9.60;90.80;;;;;;5113545;28;20368;-70
2021/04/21 08:01:50;;;;;;;26.00;15.98;;;9.70;90.20;;;;;;5114089;28;20047;-70
2021/04/21 08:04:51;;;;;;;23.65;15.50;;;9.80;90.10;;;;;;5098222;28;20044;-71
2021/04/21 08:07:29;;;;;;;21.92;14.32;;;9.60;90.20;;;;;;5113414;28;20498;-70
2021/04/21 08:09:56;;;;;;;20.20;12.73;;;9.50;90.10;;;;;;5113407;28;20046;-70
2021/04/21 08:12:25;;;;;;;20.92;13.25;;;9.60;89.90;;;;;;5113613;28;20120;-70
2021/04/21 08:14:56;;;;;;;19.55;13.20;;;9.60;90.00;;;;;;5113341;28;20036;-70
2021/04/21 08:17:22;;;;;;;20.38;13.27;;;9.60;90.10;;;;;;5113309;28;20475;-70
2021/04/21 08:19:53;;;;;;;17.92;10.88;;;9.70;90.20;;;;;;5113552;28;20088;-70
2021/04/21 08:22:24;;;;;;;17.13;9.15;;;9.90;89.30;;;;;;5113901;28;20467;-70
2021/04/21 08:24:50;;;;;;;14.07;9.20;;;9.80;88.70;;;;;;5113127;28;20040;-70
2021/04/21 08:27:17;;;;;;;19.02;8.32;;;9.90;88.80;;;;;;5113620;28;20035;-70
2021/04/21 08:29:45;;;;;;;14.43;8.45;;;9.90;88.50;;;;;;5113204;28;20483;-70
2021/04/21 08:32:16;;;;;;;13.32;8.40;;;9.80;88.50;;;;;;5113273;28;20035;-70
2021/04/21 08:34:42;;;;;;;16.08;9.98;;;9.70;88.20;;;;;;5113296;28;20039;-70
2021/04/21 08:37:09;;;;;;;11.63;8.55;;;9.60;88.80;;;;;;5113148;28;20036;-70
2021/04/21 08:39:35;;;;;;;13.35;7.75;;;9.60;89.10;;;;;;5116145;28;20493;-70
2021/04/21 08:42:02;;;;;;;14.30;6.97;;;9.70;89.10;;;;;;5117317;28;20042;-70
2021/04/21 08:44:32;;;;;;;8.75;5.10;;;9.60;88.10;;;;;;5117047;28;20035;-70
2021/04/21 08:47:00;;;;;;;8.30;4.07;;;9.60;87.70;;;;;;5117159;28;20100;-70
2021/04/21 08:49:29;;;;;;;8.10;3.90;;;9.60;86.70;;;;;;5116978;28;20039;-70
2021/04/21 08:51:57;;;;;;;4.90;3.35;;;9.70;86.10;;;;;;5116894;28;20039;-70
2021/04/21 08:54:23;;;;;;;6.25;4.00;;;9.60;86.20;;;;;;5116644;28;20118;-71
2021/04/21 08:56:50;;;;;;;5.80;3.20;;;9.50;86.50;;;;;;5117220;28;20568;-70
2021/04/21 08:59:16;;;;;;;5.38;2.92;;;9.40;86.40;;;;;;5116295;27;20093;-70
2021/04/21 09:01:45;;;;;;;4.78;2.60;;;9.40;85.70;;;;;;5117047;28;20081;-70
2021/04/21 09:04:13;;;;;;;7.50;2.47;;;9.60;85.70;;;;;;5116522;28;20110;-70
2021/04/21 09:06:40;;;;;;;7.15;2.72;;;9.60;85.10;;;;;;5115988;28;20380;-70
2021/04/21 09:09:06;;;;;;;6.10;2.45;;;9.70;84.30;;;;;;5116965;28;20467;-70
2021/04/21 09:11:33;;;;;;;6.15;2.22;;;9.80;83.10;;;;;;5116939;28;20050;-70
2021/04/21 09:13:59;;;;;;;8.48;2.20;;;9.80;83.00;;;;;;5116644;28;20044;-71
2021/04/21 09:16:24;;;;;;;6.35;1.75;;;10.00;83.10;;;;;;5116684;28;20340;-71
2021/04/21 09:18:50;;;;;;;4.78;2.25;;;10.10;82.70;;;;;;5116464;28;20097;-71
2021/04/21 09:21:28;;;;;;;4.88;2.25;;;10.60;81.60;;;;;;5116306;28;20109;-70
2021/04/21 09:23:54;;;;;;;10.50;2.65;;;10.70;80.80;;;;;;5116874;28;20039;-70
2021/04/21 09:26:23;;;;;;;6.45;2.60;;;10.60;80.30;;;;;;5115685;28;20494;-71
2021/04/21 09:28:53;;;;;;;7.78;3.17;;;10.50;79.60;;;;;;5116715;28;20036;-71
2021/04/21 09:31:29;;;;;;;4.80;1.75;;;11.10;79.20;;;;;;5116997;28;20063;-71
2021/04/21 09:34:13;;;;;;;8.80;2.17;;;11.30;76.90;;;;;;5116026;28;20089;-71
2021/04/21 09:36:45;;;;;;;9.32;1.98;;;11.50;73.80;;;;;;5115684;28;20031;-71
2021/04/21 09:39:15;;;;;;;6.72;1.45;;;11.60;70.40;;;;;;5116384;28;20059;-71
2021/04/21 09:41:43;;;;;;;4.60;1.30;;;11.20;68.80;;;;;;5116199;28;20031;-71
2021/04/21 09:44:17;;;;;;;5.75;1.63;;;11.50;70.00;;;;;;5116089;27;20036;-71
2021/04/21 09:46:44;;;;;;;9.77;2.10;;;11.50;70.20;;;;;;5115467;27;20035;-71
2021/04/21 09:49:30;;;;;;;10.05;1.60;;;11.40;71.50;;;;;;5116434;28;20486;-71
2021/04/21 09:52:01;;;;;;;5.40;1.42;;;11.60;68.00;;;;;;5115064;28;20395;-71
2021/04/21 09:54:29;;;;;;;8.75;1.88;;;11.30;69.80;;;;;;5115503;28;20036;-71
2021/04/21 09:57:08;;;;;;;5.32;2.00;;;11.50;71.20;;;;;;5115980;28;20071;-70
2021/04/21 09:59:34;;;;;;;9.05;1.90;;;11.70;69.20;;;;;;5115607;28;20063;-70
2021/04/21 10:02:00;;;;;;;12.75;2.22;;;11.80;68.10;;;;;;5115620;28;20042;-71
2021/04/21 10:04:26;;;;;;;7.95;1.95;;;11.90;67.30;;;;;;5115353;28;20044;-71
2021/04/21 10:07:02;;;;;;;9.27;1.90;;;11.40;66.90;;;;;;5115274;28;20039;-71
2021/04/21 10:09:38;;;;;;;8.07;1.83;;;11.10;68.40;;;;;;5116209;28;20063;-71
2021/04/21 10:12:18;;;;;;;12.07;2.78;;;11.30;70.60;;;;;;5115305;27;20048;-71
2021/04/21 10:14:49;;;;;;;11.27;1.85;;;11.10;70.70;;;;;;5114913;28;20043;-71
2021/04/21 10:17:15;;;;;;;9.73;1.88;;;11.30;71.10;;;;;;5115356;28;20062;-71
2021/04/21 10:19:42;;;;;;;7.47;2.22;;;11.10;70.80;;;;;;5114334;28;20040;-70
2021/04/21 10:22:11;;;;;;;16.45;2.25;;;11.20;70.30;;;;;;5115297;28;20083;-70
2021/04/21 10:24:37;;;;;;;12.65;2.67;;;11.10;69.60;;;;;;5114560;28;20036;-71
2021/04/21 10:27:04;;;;;;;5.65;1.95;;;11.10;68.50;;;;;;5115018;28;20410;-71
2021/04/21 10:29:31;;;;;;;13.15;2.50;;;11.20;68.20;;;;;;5114878;28;20044;-70
2021/04/21 10:31:57;;;;;;;6.97;2.15;;;11.30;67.50;;;;;;5115502;28;20478;-71
2021/04/21 10:34:23;;;;;;;8.20;2.47;;;11.20;69.10;;;;;;5115107;28;20414;-71
2021/04/21 10:36:53;;;;;;;13.38;2.22;;;11.00;69.60;;;;;;5114837;28;20040;-71
2021/04/21 10:39:34;;;;;;;13.98;2.53;;;10.90;70.20;;;;;;5114775;28;20096;-71
2021/04/21 10:42:24;;;;;;;12.55;2.88;;;10.90;70.90;;;;;;5114424;28;20122;-72
2021/04/21 10:45:16;;;;;;;8.55;1.75;;;10.90;72.00;;;;;;5114785;28;20467;-72
2021/04/21 10:47:48;;;;;;;8.52;2.00;;;10.80;70.60;;;;;;5114503;28;20544;-71
2021/04/21 10:50:35;;;;;;;10.43;2.50;;;11.00;70.90;;;;;;5115132;28;20040;-71
2021/04/21 10:53:01;;;;;;;10.85;2.40;;;10.90;71.40;;;;;;5114778;28;20577;-71
2021/04/21 10:55:35;;;;;;;8.35;1.77;;;10.90;70.70;;;;;;5114137;28;20395;-71
2021/04/21 10:58:04;;;;;;;7.90;2.63;;;11.00;71.00;;;;;;5114336;28;20115;-71
2021/04/21 11:00:31;;;;;;;11.60;2.63;;;11.00;70.20;;;;;;5113857;28;20036;-72
2021/04/21 11:03:08;;;;;;;13.50;2.53;;;10.90;72.80;;;;;;5113844;28;20031;-72
2021/04/21 11:05:40;;;;;;;13.18;2.42;;;10.70;73.40;;;;;;5119067;27;20066;-72
2021/04/21 11:08:29;;;;;;;17.42;3.80;;;10.70;74.40;;;;;;5114760;28;20074;-71
2021/04/21 11:11:05;;;;;;;9.73;2.65;;;10.80;74.70;;;;;;5113642;27;20055;-71
2021/04/21 11:13:44;;;;;;;11.80;2.75;;;10.60;74.80;;;;;;5114251;28;20052;-71
2021/04/21 11:16:21;;;;;;;13.13;2.70;;;10.90;75.70;;;;;;5113733;28;20114;-72
2021/04/21 11:18:47;;;;;;;19.30;3.20;;;10.80;73.60;;;;;;5114527;28;20537;-71
2021/04/21 11:21:19;;;;;;;12.05;3.92;;;10.90;73.20;;;;;;5113967;28;20035;-72
2021/04/21 11:24:03;;;;;;;15.32;2.97;;;11.10;71.80;;;;;;5114066;28;20038;-72
2021/04/21 11:26:30;;;;;;;12.20;3.40;;;11.20;70.40;;;;;;5112341;28;20043;-72
2021/04/21 11:29:24;;;;;;;14.90;3.30;;;11.50;69.20;;;;;;5113904;28;20463;-72
2021/04/21 11:31:51;;;;;;;8.18;3.13;;;11.10;66.50;;;;;;5113925;28;20412;-72
2021/04/21 11:34:27;;;;;;;12.00;2.63;;;11.00;67.60;;;;;;5113718;28;20042;-72
2021/04/21 11:37:01;;;;;;;9.90;2.25;;;11.20;67.40;;;;;;5112997;27;20074;-71
2021/04/21 11:42:20;;;;;;;15.43;3.10;;;11.30;65.30;;;;;;5113890;28;20072;-71
2021/04/21 11:45:16;;;;;;;9.50;2.20;;;11.30;66.70;;;;;;5111926;28;20131;-71
2021/04/21 11:47:45;;;;;;;11.23;2.85;;;11.50;66.40;;;;;;5113732;28;20035;-71
2021/04/21 11:50:13;;;;;;;6.85;2.35;;;11.30;65.20;;;;;;5113692;28;20051;-72
2021/04/21 11:52:47;;;;;;;11.95;2.88;;;11.20;64.80;;;;;;5113500;28;20036;-71
2021/04/21 11:55:59;;;;;;;9.73;2.22;;;11.40;64.30;;;;;;5113529;28;20043;-71
2021/04/21 11:58:31;;;;;;;12.00;1.95;;;11.40;62.80;;;;;;5092544;28;20051;-72
2021/04/21 12:01:01;;;;;;;10.23;2.50;;;11.20;62.70;;;;;;5112096;28;20071;-71
2021/04/21 12:03:36;;;;;;;9.02;2.05;;;11.20;62.70;;;;;;5113469;28;20042;-71
2021/04/21 12:06:05;;;;;;;9.57;2.63;;;11.00;62.80;;;;;;5113552;28;20059;-72
2021/04/21 12:08:38;;;;;;;7.55;1.98;;;10.90;63.30;;;;;;5113249;28;20046;-71
2021/04/21 12:11:06;;;;;;;11.05;2.47;;;11.20;64.20;;;;;;5113929;28;20031;-71
2021/04/21 12:13:47;;;;;;;9.85;2.75;;;11.10;63.90;;;;;;5114995;28;20498;-71
2021/04/21 12:16:15;;;;;;;10.13;2.63;;;11.00;61.10;;;;;;5117200;28;20031;-72
2021/04/21 12:18:52;;;;;;;15.65;3.72;;;11.30;62.30;;;;;;5117313;28;20039;-72
2021/04/21 12:21:18;;;;;;;12.95;2.88;;;11.60;63.10;;;;;;5118030;28;20036;-72
2021/04/21 12:23:45;;;;;;;14.65;3.05;;;11.40;61.60;;;;;;5117590;28;20431;-72
2021/04/21 12:26:20;;;;;;;10.35;2.80;;;11.50;62.00;;;;;;5116853;28;20058;-72
2021/04/21 12:28:54;;;;;;;12.55;2.70;;;11.30;61.60;;;;;;5117654;28;20444;-73
2021/04/21 12:31:21;;;;;;;12.70;3.55;;;11.30;62.20;;;;;;5116302;28;20031;-72
2021/04/21 12:33:55;;;;;;;9.95;2.90;;;10.90;60.40;;;;;;5117225;28;20122;-72
2021/04/21 12:36:25;;;;;;;;;;;11.00;62.10;;;;;;5117289;28;20036;-72
2021/04/21 12:39:09;;;;;;;8.77;2.80;;;10.80;61.50;;;;;;5117067;28;19954;-72
2021/04/21 12:41:37;;;;;;;13.32;3.28;;;10.70;62.80;;;;;;5117362;28;20038;-72
2021/04/21 12:44:17;;;;;;;7.85;3.20;;;10.60;63.20;;;;;;5116684;28;20039;-72
2021/04/21 12:46:44;;;;;;;13.48;3.45;;;10.60;63.30;;;;;;5116479;28;20414;-71
2021/04/21 12:49:10;;;;;;;14.93;3.33;;;10.50;64.30;;;;;;5116831;28;20063;-71
2021/04/21 12:51:45;;;;;;;15.45;3.70;;;10.60;64.80;;;;;;5116748;28;20376;-72
2021/04/21 12:54:48;;;;;;;20.02;3.70;;;10.60;65.40;;;;;;5116940;28;20043;-72
2021/04/21 12:57:15;;;;;;;11.98;3.38;;;10.60;64.40;;;;;;5115317;28;20110;-72
2021/04/21 12:59:43;;;;;;;10.45;3.83;;;10.50;60.20;;;;;;5117265;28;20036;-72
2021/04/21 13:02:16;;;;;;;12.25;3.50;;;10.70;62.40;;;;;;5116670;28;20031;-72
2021/04/21 13:04:47;;;;;;;13.05;3.10;;;11.00;63.50;;;;;;5115955;28;20040;-72
2021/04/21 13:07:18;;;;;;;11.75;3.20;;;10.90;62.20;;;;;;5114950;28;20551;-72
2021/04/21 13:09:45;;;;;;;14.35;3.33;;;11.10;61.80;;;;;;5116618;28;20482;-72
2021/04/21 13:12:14;;;;;;;14.93;4.00;;;11.10;60.50;;;;;;5116524;28;20134;-72
2021/04/21 13:14:42;;;;;;;11.15;3.00;;;11.10;60.50;;;;;;5115797;28;20440;-73
2021/04/21 13:17:11;;;;;;;8.75;2.35;;;11.30;59.80;;;;;;5114978;28;20039;-72